Aérodrome :
LOGIN :

S'inscrire | Disclaimer

   EN    FR    IT 

 










Légende :    VFR   VFR Marginal   IFR   IFR Intensif   IFR Très Intensif
Visi : 
Plafond : 
>= 8 km
>= 3000ft
5 à 8 km
1000 à 3000 ft
1500m à 5 km
500 à 1000 ft
800 à 1500m
200 à 500 ft
< 800m
< 200 ft
Symboles :   Orages  Brouillard  Fortes neiges  Fortes précipitations  Vent > 20 kt
SIGMETs :   Divers  Orages  Givrage  Turbulence  Onde Orograph.  Cendres Volcan.







- Altitude de l'aérodrome : 1649 ft
- Code IATA : HHN


EDFH - Frankfurt-Hahn Rhineland-Palatinate

DERNIER METAR :
  • 190320Z 15009KT 9999 BKN008 M02/M04 Q1020

METARs EXPIRÉS :
  • 190250Z 15009KT 9999 BKN008 M02/M04 Q1020
  • 190220Z 15009KT 9999 BKN009 M02/M04 Q1020
  • 190150Z 15006KT 9999 BKN010 M02/M04 Q1021
  • 190120Z 15010KT 9999 BKN010 M03/M04 Q1021
  • 190050Z 14010KT 9999 SCT011 M03/M04 Q1021

TAF TAF EDFH
Valide du 19 à 00h jusqu'au 20 à 00h UTC


182300Z 1900/1924 13005KT 9999 FEW010
PROB30
TEMPO 1900/1924 BKN005
PROB30
TEMPO 1904/1910 2000 BCFG
Pas de NOTAMs connus pour ce terrain.



MET'MAP, la Météo Aéronautique d'un coup d'oeil ! - Copyright ORBIFLY Décembre 2007 - Disclaimer

ORBIFLY MET'MAP TEAM :

Programmation & Développement : Alexandra Zaïnal
Conception & Développement : Baudouin d'Aumeries
Co-Programmation & Développement : Marc-Olivier Méhu
Soutien technique & logistique : Manuel Goepfert

Contact : metmap@orbifly.com




SOURCES & CREDITS :

   NOAA